Estación Meteorológica Peña el Pijo (Robertgarden) [ 02/03/23 03:53:33 CET ]

Fecha Hora Presion(HPa) Temp (°C) Humedad % Rocio (°C) Viento ( m/s) Direccion Lluvia 1Hora(mm) Lluvia 24H(mm) LLuvia Total(mm)
2010-Aug-29 01:01:21 1014.500 20.8 84 18.0         152.29
2010-Aug-29 02:01:14 1014.200 21.1 84 18.3         152.29
2010-Aug-29 03:01:15 1013.900 20.9 82 17.7         152.29
2010-Aug-29 04:01:14 1013.800 20.4 83 17.4         152.29
2010-Aug-29 05:01:16 1013.700 20.3 82 17.1         152.29
2010-Aug-29 06:01:16 1013.600 19.9 81 16.6         152.29
2010-Aug-29 07:01:14 1013.600 19.6 81 16.3         152.29
2010-Aug-29 08:01:13 1013.900 19.0 81 15.7         152.29
2010-Aug-29 09:01:15 1014.300 21.2 77 17.0         152.29
2010-Aug-29 10:01:16 1014.600 24.1 67 17.4         152.29
2010-Aug-29 11:01:14 1014.800 27.4 57 18.1         152.29
2010-Aug-29 12:01:15 1015.000 30.2 49 18.3         152.29
2010-Aug-29 13:01:18 1015.000 31.4 44 17.6         152.29
2010-Aug-29 14:01:16 1014.700 33.9 39 18.0         152.29
2010-Aug-29 15:01:14 1014.100 32.9 39 17.1         152.29
2010-Aug-29 16:01:16 1013.700 31.0 41 16.2         152.29
2010-Aug-29 17:01:32 1013.000 32.1 41 17.1         152.29
2010-Aug-29 18:01:37 1012.700 32.9 38 16.6         152.29
2010-Aug-29 19:01:33 1012.500 31.4 36 14.4         152.29
2010-Aug-29 20:01:34 1012.500 28.8 45 15.7         152.29
2010-Aug-29 21:01:15 1013.600 25.3 56 15.9         152.29
2010-Aug-29 22:01:17 1014.300 23.2 63 15.7         152.29
2010-Aug-29 23:01:14 1014.600 20.8 70 15.1         152.29

Temperatura Máxima:33°    Temperatura Mínima:19°
Presión Máxima:1015.000 Hpa    Presión Mínima:1012.500 Hpa


Volver